Time;durP1;ratioP1;P1;durP2;ratioP2;P2;SDS_P1;SDS_P2;PMS_P1;PMS_P2;Temp;Humidity;BMP_temperature;BMP_pressure;BME280_temperature;BME280_humidity;BME280_pressure;Samples;Min_cycle;Max_cycle;Signal;HPM_P1;HPM_P2
2021/12/19 05:21:11;;;;;;;2.88;0.93;;;;;;;1.65;62.94;95275.88;5615470;23;20056;-88
2021/12/19 05:26:14;;;;;;;2.10;0.80;;;;;;;1.33;65.76;95283.19;4908764;29;20306;-89
2021/12/19 05:28:39;;;;;;;2.03;0.90;;;;;;;1.18;63.87;95286.66;4907408;29;20314;-89
2021/12/19 05:31:05;;;;;;;1.88;0.73;;;;;;;1.07;68.89;95285.34;4897111;29;20036;-89
2021/12/19 05:33:30;;;;;;;1.33;0.65;;;;;;;1.17;64.90;95277.31;4879085;29;20039;-89
2021/12/19 05:44:15;;;;;;;1.33;0.80;;;;;;;1.07;64.07;95269.06;4923531;29;20046;-89
2021/12/19 05:46:40;;;;;;;1.13;0.63;;;;;;;1.25;65.02;95263.47;4907655;29;20028;-89
2021/12/19 05:49:07;;;;;;;3.38;0.80;;;;;;;1.22;64.98;95264.63;4896981;29;20047;-89
2021/12/19 05:51:33;;;;;;;1.33;0.60;;;;;;;1.02;64.50;95261.88;4887382;29;20039;-89
2021/12/19 05:53:59;;;;;;;1.20;0.70;;;;;;;1.13;65.79;95261.38;4872564;29;20063;-88
2021/12/19 05:56:24;;;;;;;1.00;0.68;;;;;;;0.97;65.44;95269.38;4887952;29;20473;-89
2021/12/19 05:58:50;;;;;;;1.35;0.70;;;;;;;0.70;70.48;95272.47;4887820;29;20032;-89
2021/12/19 06:01:15;;;;;;;2.00;0.90;;;;;;;0.74;71.80;95275.50;4888076;29;20036;-89
2021/12/19 06:03:41;;;;;;;1.80;0.80;;;;;;;0.47;74.05;95280.38;4904104;29;20047;-89
2021/12/19 06:06:07;;;;;;;1.27;0.70;;;;;;;0.28;77.32;95268.84;4872479;29;20033;-89
2021/12/19 06:08:32;;;;;;;1.60;0.80;;;;;;;0.20;79.96;95269.72;4887900;29;20422;-89
2021/12/19 06:10:58;;;;;;;4.03;1.27;;;;;;;0.12;86.44;95262.91;4887666;29;20040;-89
2021/12/19 06:13:24;;;;;;;1.40;0.85;;;;;;;0.05;80.63;95256.06;4871748;29;20048;-89
2021/12/19 06:15:52;;;;;;;1.88;1.00;;;;;;;0.26;76.60;95247.59;4887537;29;20047;-89
2021/12/19 06:18:17;;;;;;;1.52;0.98;;;;;;;0.41;72.78;95245.00;4887975;29;20033;-89
2021/12/19 06:20:43;;;;;;;2.78;0.98;;;;;;;0.49;72.26;95236.38;4871802;29;20080;-89
2021/12/19 06:23:09;;;;;;;0.95;0.65;;;;;;;0.77;70.83;95235.66;4902891;29;20127;-89
2021/12/19 06:25:34;;;;;;;1.15;0.60;;;;;;;0.61;73.85;95236.69;4887465;29;20390;-89
2021/12/19 06:28:00;;;;;;;1.45;0.80;;;;;;;0.40;73.02;95223.56;4887572;29;20043;-89
2021/12/19 06:30:27;;;;;;;3.70;0.50;;;;;;;0.56;71.14;95224.31;4887618;29;20071;-89
2021/12/19 06:32:53;;;;;;;0.98;0.73;;;;;;;0.82;70.00;95218.66;4903678;29;20037;-89
2021/12/19 06:35:19;;;;;;;1.13;0.70;;;;;;;0.44;71.66;95210.34;4871975;29;20155;-89
2021/12/19 06:37:49;;;;;;;2.00;1.13;;;;;;;0.27;71.41;95201.03;4903290;29;20071;-90
2021/12/19 06:40:17;;;;;;;2.00;0.82;;;;;;;0.23;72.10;95207.53;4903548;29;20040;-89
2021/12/19 06:42:43;;;;;;;1.20;0.82;;;;;;;0.48;71.05;95208.97;4886433;29;20037;-89
2021/12/19 06:45:10;;;;;;;2.00;0.90;;;;;;;0.51;70.44;95209.41;4887080;29;20059;-89
2021/12/19 06:47:36;;;;;;;1.27;0.60;;;;;;;0.36;70.58;95201.72;4886619;29;20040;-89
2021/12/19 06:50:02;;;;;;;1.02;0.70;;;;;;;0.34;71.14;95193.38;4887967;29;20035;-89
2021/12/19 06:52:27;;;;;;;0.98;0.70;;;;;;;0.49;70.87;95184.78;4921237;29;20039;-89
2021/12/19 06:54:53;;;;;;;1.88;0.90;;;;;;;0.52;71.37;95190.38;4905482;29;20035;-89
2021/12/19 06:57:18;;;;;;;1.27;0.80;;;;;;;0.69;69.58;95187.56;4921569;29;20032;-89
2021/12/19 06:59:44;;;;;;;1.08;0.77;;;;;;;0.62;69.61;95178.94;4922448;29;20064;-89
2021/12/19 07:02:13;;;;;;;2.22;0.80;;;;;;;0.56;71.30;95183.06;4878516;29;20092;-89
2021/12/19 07:04:40;;;;;;;1.20;0.82;;;;;;;0.52;71.23;95179.25;4887347;29;20033;-89
2021/12/19 07:07:06;;;;;;;2.15;0.90;;;;;;;0.53;71.52;95173.94;4886774;29;20051;-89
2021/12/19 07:09:31;;;;;;;2.08;1.00;;;;;;;0.63;71.73;95171.03;4890097;29;20028;-89
2021/12/19 07:11:57;;;;;;;1.92;0.90;;;;;;;0.95;69.31;95165.56;4889482;29;20429;-89
2021/12/19 07:14:22;;;;;;;1.83;0.90;;;;;;;0.93;69.39;95164.91;4905320;29;20046;-89
2021/12/19 07:16:48;;;;;;;1.55;0.80;;;;;;;1.01;70.29;95161.44;4889966;29;20036;-89
2021/12/19 07:19:13;;;;;;;1.02;0.70;;;;;;;1.38;68.23;95157.72;4889756;29;20034;-89
2021/12/19 07:21:38;;;;;;;1.33;0.82;;;;;;;1.44;66.81;95166.50;4889083;29;20040;-89
2021/12/19 07:24:04;;;;;;;1.45;0.90;;;;;;;1.54;70.58;95161.75;4905290;29;20036;-89
2021/12/19 07:26:29;;;;;;;1.45;0.90;;;;;;;1.59;69.89;95170.75;4904582;29;20102;-90
2021/12/19 07:28:56;;;;;;;0.88;0.70;;;;;;;1.49;74.19;95178.81;4904822;29;20036;-89
2021/12/19 07:31:22;;;;;;;4.13;0.80;;;;;;;1.49;75.40;95177.03;4889407;29;20032;-89
2021/12/19 07:33:47;;;;;;;2.65;0.70;;;;;;;1.43;79.08;95177.78;4904850;29;20036;-89
2021/12/19 07:36:14;;;;;;;1.00;0.70;;;;;;;1.52;74.78;95170.72;4887603;29;20040;-89
2021/12/19 07:38:52;;;;;;;4.72;1.17;;;;;;;1.48;74.83;95164.31;4904696;29;20038;-90
2021/12/19 07:41:18;;;;;;;1.65;0.80;;;;;;;1.59;73.75;95163.78;4906330;29;20028;-89
2021/12/19 07:43:43;;;;;;;1.75;1.13;;;;;;;1.69;75.42;95166.00;4904384;29;20456;-89
2021/12/19 07:46:09;;;;;;;3.25;1.27;;;;;;;1.86;75.85;95168.25;4904706;29;20039;-88
2021/12/19 07:48:34;;;;;;;1.80;1.00;;;;;;;2.11;78.22;95153.84;4905189;29;20114;-88
2021/12/19 07:51:10;;;;;;;1.60;0.95;;;;;;;2.00;78.14;95157.00;4917796;29;20080;-87
2021/12/19 07:53:36;;;;;;;4.05;0.88;;;;;;;2.00;77.05;95157.00;4887609;29;20035;-87
2021/12/19 07:56:01;;;;;;;2.45;1.00;;;;;;;2.28;75.97;95153.50;4909632;29;20032;-88
2021/12/19 07:58:27;;;;;;;1.60;0.70;;;;;;;2.58;68.74;95153.16;4882512;29;20024;-87
2021/12/19 08:00:52;;;;;;;1.83;1.10;;;;;;;2.53;68.67;95155.53;4889295;29;20027;-87
2021/12/19 08:03:18;;;;;;;1.40;0.85;;;;;;;2.57;66.64;95155.97;4904069;29;20036;-87
2021/12/19 08:05:43;;;;;;;1.55;1.00;;;;;;;2.60;73.23;95156.38;4889302;29;20024;-87
2021/12/19 08:08:11;;;;;;;2.05;0.98;;;;;;;2.60;75.09;95153.78;4889271;29;20087;-87
2021/12/19 08:13:08;;;;;;;9.82;1.50;;;;;;;2.72;74.65;95161.75;4921308;29;20036;-87
2021/12/19 08:15:34;;;;;;;2.70;0.90;;;;;;;2.75;78.31;95163.16;4904210;29;20059;-87
2021/12/19 08:17:59;;;;;;;4.07;1.10;;;;;;;2.73;76.27;95180.66;4904198;29;20115;-87
2021/12/19 08:20:27;;;;;;;3.03;1.13;;;;;;;2.91;74.64;95170.53;4904004;29;20107;-87
2021/12/19 08:22:53;;;;;;;3.50;1.00;;;;;;;2.92;72.30;95169.53;4903984;29;20032;-87
2021/12/19 08:25:18;;;;;;;1.42;0.90;;;;;;;2.91;73.51;95165.34;4888199;29;20039;-87
2021/12/19 08:27:46;;;;;;;3.20;1.02;;;;;;;3.16;76.24;95167.34;4920740;29;20083;-87
2021/12/19 08:30:14;;;;;;;2.75;1.27;;;;;;;3.05;76.14;95165.34;4892297;29;20032;-87
2021/12/19 08:32:40;;;;;;;1.77;0.80;;;;;;;3.25;77.58;95173.88;4869032;29;20032;-88
2021/12/19 08:35:07;;;;;;;3.60;0.85;;;;;;;3.46;71.91;95179.03;4901921;29;20080;-88
2021/12/19 08:37:33;;;;;;;4.82;0.90;;;;;;;3.41;71.47;95168.50;4868830;29;20032;-88
2021/12/19 08:39:59;;;;;;;1.60;0.95;;;;;;;3.46;72.57;95172.09;4885110;29;20021;-88
2021/12/19 08:42:25;;;;;;;2.55;1.20;;;;;;;3.59;70.73;95173.06;4869207;29;20036;-85
2021/12/19 08:44:50;;;;;;;1.65;1.08;;;;;;;3.76;72.85;95171.59;4884823;29;20052;-85
2021/12/19 08:47:16;;;;;;;3.13;1.00;;;;;;;3.90;76.99;95174.16;4869579;29;20075;-85
2021/12/19 08:49:42;;;;;;;3.33;1.10;;;;;;;3.84;75.75;95164.59;4869551;29;20115;-85
2021/12/19 08:52:08;;;;;;;1.67;0.90;;;;;;;3.83;75.56;95169.00;4884326;29;20025;-85
2021/12/19 08:54:34;;;;;;;9.23;1.23;;;;;;;3.98;78.72;95166.13;4884713;29;20024;-86
2021/12/19 08:56:59;;;;;;;3.50;1.35;;;;;;;3.92;77.21;95172.16;4884809;29;20029;-85
2021/12/19 08:59:26;;;;;;;2.97;1.20;;;;;;;3.89;74.48;95157.03;4884624;29;20034;-85
2021/12/19 09:01:53;;;;;;;1.63;0.90;;;;;;;3.95;75.41;95166.56;4868983;29;20032;-85
2021/12/19 09:04:19;;;;;;;1.80;0.90;;;;;;;4.07;75.49;95153.72;4884888;29;20029;-85
2021/12/19 09:06:44;;;;;;;2.15;1.00;;;;;;;4.08;76.65;95160.50;4884655;29;20055;-86
2021/12/19 09:09:10;;;;;;;1.33;0.70;;;;;;;4.09;74.88;95159.53;4884710;29;20072;-85
2021/12/19 09:11:35;;;;;;;1.17;0.80;;;;;;;4.02;70.52;95159.56;4884319;29;20033;-85
2021/12/19 09:14:01;;;;;;;3.28;0.98;;;;;;;4.11;69.59;95149.75;4884871;29;20123;-85
2021/12/19 09:16:26;;;;;;;1.95;0.90;;;;;;;4.30;70.52;95155.03;4884530;29;20029;-85
2021/12/19 09:18:52;;;;;;;1.95;0.90;;;;;;;4.27;67.48;95150.25;4886173;29;20028;-85
2021/12/19 09:21:18;;;;;;;4.97;1.00;;;;;;;4.28;66.90;95144.84;4903265;29;20125;-85
2021/12/19 09:23:43;;;;;;;1.45;0.80;;;;;;;4.49;61.06;95146.34;4918568;29;20341;-85
2021/12/19 09:26:09;;;;;;;1.45;0.90;;;;;;;4.73;68.77;95143.19;4903242;29;20108;-85
2021/12/19 09:28:34;;;;;;;2.78;1.00;;;;;;;4.71;74.93;95145.19;4903261;29;20076;-85
2021/12/19 09:31:01;;;;;;;2.28;1.13;;;;;;;4.71;67.08;95137.41;4903405;29;20032;-85
2021/12/19 09:33:26;;;;;;;1.58;1.00;;;;;;;4.73;67.42;95138.78;4887082;29;20123;-85
2021/12/19 09:35:52;;;;;;;1.55;0.80;;;;;;;4.76;67.92;95137.59;4887544;29;20032;-85
2021/12/19 09:38:20;;;;;;;3.85;0.98;;;;;;;4.90;69.01;95135.69;4903453;29;20036;-85
2021/12/19 09:40:46;;;;;;;5.53;1.30;;;;;;;4.90;68.23;95128.69;4902866;29;20047;-85
2021/12/19 09:46:17;;;;;;;2.88;1.05;;;;;;;5.13;64.82;95134.31;4895111;29;20111;-85
2021/12/19 09:48:45;;;;;;;2.47;1.23;;;;;;;5.08;64.53;95124.53;4888346;29;20120;-85
2021/12/19 09:51:13;;;;;;;2.13;0.80;;;;;;;5.13;64.64;95119.50;4906532;29;20024;-85
2021/12/19 09:53:39;;;;;;;1.73;0.90;;;;;;;5.11;65.39;95116.31;4890362;29;20034;-85
2021/12/19 09:56:06;;;;;;;1.40;0.88;;;;;;;5.20;66.72;95104.66;4890989;29;20449;-85
2021/12/19 09:58:32;;;;;;;1.73;1.00;;;;;;;5.33;67.19;95108.13;4922160;29;20032;-85
2021/12/19 10:01:04;;;;;;;1.60;0.90;;;;;;;5.42;66.85;95099.03;4890790;29;20034;-85
2021/12/19 10:03:30;;;;;;;2.08;1.08;;;;;;;5.40;65.69;95101.06;4905886;29;20042;-85
2021/12/19 10:06:31;;;;;;;4.70;1.95;;;;;;;5.50;64.50;95098.75;4906187;29;20028;-85
2021/12/19 10:09:15;;;;;;;8.20;3.35;;;;;;;5.45;66.60;95090.81;4846647;29;20042;-85
2021/12/19 10:14:34;;;;;;;1.45;0.98;;;;;;;5.58;66.10;95083.88;4880354;29;20065;-88
2021/12/19 10:17:06;;;;;;;2.03;1.10;;;;;;;5.55;64.99;95076.50;4887354;29;20116;-88
2021/12/19 10:19:44;;;;;;;1.25;0.88;;;;;;;5.63;66.39;95074.41;4903220;29;20353;-88
2021/12/19 10:22:29;;;;;;;2.03;0.90;;;;;;;5.76;69.06;95073.47;4922376;29;20046;-87
2021/12/19 10:24:57;;;;;;;1.48;0.77;;;;;;;5.67;65.69;95064.38;4922826;29;20039;-88
2021/12/19 10:27:36;;;;;;;1.38;1.05;;;;;;;5.82;63.78;95061.41;4906111;29;20028;-88
2021/12/19 10:30:09;;;;;;;2.03;0.80;;;;;;;5.80;59.04;95063.41;4905952;29;20028;-88
2021/12/19 10:32:35;;;;;;;1.88;0.90;;;;;;;5.83;58.24;95056.97;4905952;29;20036;-88
2021/12/19 10:35:20;;;;;;;1.65;0.93;;;;;;;6.01;58.76;95053.53;4906212;29;20024;-89
2021/12/19 10:37:45;;;;;;;2.47;1.10;;;;;;;5.99;60.27;95047.78;4890526;29;20031;-88
2021/12/19 10:40:12;;;;;;;2.13;1.20;;;;;;;5.99;64.86;95045.94;4921531;29;20426;-88
2021/12/19 10:42:50;;;;;;;3.40;1.20;;;;;;;6.05;63.71;95037.31;4905237;29;20461;-88
2021/12/19 10:45:32;;;;;;;2.58;1.23;;;;;;;6.14;64.70;95039.56;4922507;29;20111;-88
2021/12/19 10:48:20;;;;;;;2.00;1.20;;;;;;;6.26;66.02;95029.22;4922744;29;20028;-89
2021/12/19 10:51:05;;;;;;;2.05;1.00;;;;;;;6.42;64.47;95030.38;4922638;29;20091;-89
2021/12/19 10:53:42;;;;;;;3.20;1.33;;;;;;;6.40;64.71;95029.81;4905171;29;20032;-88
2021/12/19 10:56:31;;;;;;;2.63;1.48;;;;;;;6.28;65.21;95025.34;4921454;29;20024;-89
2021/12/19 10:59:02;;;;;;;2.58;1.20;;;;;;;6.41;63.61;95018.38;4900988;29;20441;-89
2021/12/19 11:01:31;;;;;;;2.67;1.23;;;;;;;6.32;64.47;95016.09;4904262;29;20039;-89
2021/12/19 11:04:02;;;;;;;2.65;1.05;;;;;;;6.32;64.70;95010.91;4922451;29;20048;-89
2021/12/19 11:06:46;;;;;;;2.45;1.30;;;;;;;6.60;66.04;95014.66;4922119;29;20054;-89
2021/12/19 11:09:22;;;;;;;2.33;1.23;;;;;;;6.54;66.81;95002.53;4922080;29;20032;-89
2021/12/19 11:11:50;;;;;;;4.03;1.52;;;;;;;6.66;69.81;94997.31;4921662;29;20032;-89
2021/12/19 11:14:26;;;;;;;3.58;1.63;;;;;;;6.67;69.54;94998.13;4905227;29;20466;-89
2021/12/19 11:16:54;;;;;;;4.45;2.00;;;;;;;6.71;66.77;94997.47;4921862;29;20438;-89
2021/12/19 11:19:21;;;;;;;4.47;1.30;;;;;;;6.69;68.72;94993.47;4889733;29;20429;-88
2021/12/19 11:21:47;;;;;;;2.60;1.25;;;;;;;6.85;68.04;94984.19;4904410;29;20039;-89
2021/12/19 11:24:15;;;;;;;6.82;3.50;;;;;;;6.84;65.81;94982.63;4889771;29;20032;-89
2021/12/19 11:26:43;;;;;;;35.17;3.40;;;;;;;6.82;64.50;94985.44;4897340;29;20430;-89
2021/12/19 11:29:10;;;;;;;14.13;7.18;;;;;;;6.82;67.57;94982.84;4905131;29;20038;-89
2021/12/19 11:31:38;;;;;;;9.07;3.97;;;;;;;6.92;67.08;94975.25;4904568;29;20505;-89
2021/12/19 11:34:03;;;;;;;12.50;6.45;;;;;;;7.01;65.77;94977.47;4922137;29;20059;-89
2021/12/19 11:36:34;;;;;;;111.65;49.53;;;;;;;6.99;65.22;94975.13;4921553;29;20454;-89
2021/12/19 11:39:05;;;;;;;75.40;35.00;;;;;;;7.11;65.52;94971.72;4904759;29;20127;-88
2021/12/19 11:41:31;;;;;;;23.90;14.77;;;;;;;7.03;63.30;94960.59;4920151;29;20079;-89
2021/12/19 11:44:01;;;;;;;5.65;2.88;;;;;;;7.00;64.37;94961.06;4905255;29;20024;-89
2021/12/19 11:46:49;;;;;;;23.40;14.18;;;;;;;7.05;64.63;94950.75;4905064;29;20142;-89
2021/12/19 11:49:23;;;;;;;4.78;3.15;;;;;;;7.15;65.84;94954.59;4889423;29;20035;-88
2021/12/19 11:51:49;;;;;;;10.77;6.65;;;;;;;7.26;65.37;94945.94;4905202;29;20055;-88
2021/12/19 11:54:18;;;;;;;28.38;17.27;;;;;;;7.42;63.01;94939.19;4889145;29;20513;-89
2021/12/19 11:57:09;;;;;;;3.42;1.98;;;;;;;7.51;62.23;94934.41;4904585;29;20341;-88
2021/12/19 11:59:37;;;;;;;4.18;1.40;;;;;;;7.47;60.00;94931.47;4889454;29;20035;-88
2021/12/19 12:02:25;;;;;;;10.98;6.88;;;;;;;7.42;60.15;94925.38;4904151;29;20039;-88
2021/12/19 12:05:15;;;;;;;7.43;5.35;;;;;;;7.39;59.43;94911.00;4889071;29;20028;-88
2021/12/19 12:08:19;;;;;;;2.80;1.60;;;;;;;7.49;61.36;94905.97;4921000;29;20080;-88
2021/12/19 12:10:48;;;;;;;3.47;1.42;;;;;;;7.74;61.02;94901.41;4872114;29;20434;-88
2021/12/19 12:13:31;;;;;;;2.40;1.30;;;;;;;7.90;60.29;94900.63;4903628;29;20123;-89
2021/12/19 12:16:14;;;;;;;6.07;3.70;;;;;;;7.84;58.77;94887.75;4891625;29;20035;-88
2021/12/19 12:18:43;;;;;;;4.40;2.47;;;;;;;7.86;58.61;94888.28;4920844;29;20322;-88
2021/12/19 12:23:58;;;;;;;15.57;10.52;;;;;;;7.87;56.03;94884.66;4901494;29;20060;-88
2021/12/19 12:26:42;;;;;;;5.07;2.50;;;;;;;7.88;56.13;94878.41;4901001;29;20036;-88
2021/12/19 12:29:08;;;;;;;;;;;;;;;7.93;57.45;94881.88;4886468;29;20028;-88
2021/12/19 12:31:34;;;;;;;16.67;9.43;;;;;;;7.92;54.17;94874.31;4869427;29;19911;-88
2021/12/19 12:33:59;;;;;;;4.43;2.55;;;;;;;7.89;54.80;94879.97;4894973;29;20055;-88
2021/12/19 12:36:25;;;;;;;4.57;2.00;;;;;;;7.89;53.40;94874.75;4903959;29;20062;-88
2021/12/19 12:38:52;;;;;;;4.38;1.50;;;;;;;8.04;51.92;94875.03;4901553;29;20063;-88
2021/12/19 12:42:11;;;;;;;5.20;2.88;;;;;;;8.00;52.74;94868.69;4919532;29;20024;-88
2021/12/19 12:44:19;;;;;;;2.88;1.20;;;;;;;8.12;49.60;94868.63;4912742;29;20498;-93
2021/12/19 12:46:45;;;;;;;1.67;0.90;;;;;;;8.16;45.83;94855.84;4903537;29;20039;-89
2021/12/19 12:49:16;;;;;;;2.05;1.40;;;;;;;8.39;52.28;94856.69;4920457;29;20039;-90
2021/12/19 12:51:45;;;;;;;3.85;1.40;;;;;;;8.23;50.82;94847.84;4920227;29;20547;-90
2021/12/19 12:54:21;;;;;;;3.25;1.73;;;;;;;8.31;52.51;94847.47;4903421;29;20079;-90
2021/12/19 12:56:52;;;;;;;9.55;5.07;;;;;;;8.35;52.53;94838.91;4903728;29;20032;-90
2021/12/19 12:59:22;;;;;;;4.30;2.35;;;;;;;8.38;52.01;94842.06;4903329;29;20056;-90
2021/12/19 13:02:06;;;;;;;5.32;2.47;;;;;;;8.32;51.84;94836.78;4902912;29;20040;-90
2021/12/19 13:04:32;;;;;;;7.65;3.10;;;;;;;8.31;51.91;94834.41;4920282;29;20032;-89
2021/12/19 13:07:11;;;;;;;6.97;2.95;;;;;;;8.39;52.89;94838.44;4903611;29;20028;-89
2021/12/19 13:09:56;;;;;;;2.85;1.48;;;;;;;8.94;50.70;94831.53;4903506;29;20020;-89
2021/12/19 13:12:25;;;;;;;2.10;1.30;;;;;;;8.85;51.12;94825.94;4903149;29;20326;-89
2021/12/19 13:14:55;;;;;;;4.45;1.73;;;;;;;8.97;51.50;94822.41;4903701;29;20020;-89
2021/12/19 13:17:22;;;;;;;4.18;1.70;;;;;;;8.81;52.75;94818.84;4920161;29;20076;-89
2021/12/19 13:20:02;;;;;;;40.47;12.23;;;;;;;8.72;52.46;94824.50;4920028;29;20028;-89
2021/12/19 13:22:37;;;;;;;8.38;3.35;;;;;;;8.80;53.68;94820.66;4887550;29;20068;-89
2021/12/19 13:25:18;;;;;;;8.95;3.38;;;;;;;8.98;53.78;94827.41;4906282;29;20427;-89
2021/12/19 13:27:45;;;;;;;8.00;2.65;;;;;;;8.81;53.43;94818.84;4907252;29;20024;-89
2021/12/19 13:30:13;;;;;;;345.55;118.75;;;;;;;8.83;53.57;94819.41;4907714;29;20020;-89
2021/12/19 13:32:46;;;;;;;175.27;54.22;;;;;;;8.82;53.02;94813.38;4923263;29;20028;-89
2021/12/19 13:35:28;;;;;;;46.95;16.88;;;;;;;8.73;51.59;94812.22;4891781;29;20028;-89
2021/12/19 13:38:07;;;;;;;125.40;40.25;;;;;;;8.67;51.75;94806.13;4891584;29;20023;-88
2021/12/19 13:40:46;;;;;;;8.30;3.05;;;;;;;8.97;53.26;94801.50;4907148;29;20036;-89
2021/12/19 13:43:19;;;;;;;3.72;1.77;;;;;;;8.92;52.00;94799.63;4906268;29;20410;-90
2021/12/19 13:46:01;;;;;;;11.85;4.22;;;;;;;9.02;53.26;94804.16;4906925;29;20115;-89
2021/12/19 13:48:32;;;;;;;2.85;1.40;;;;;;;9.01;52.53;94795.53;4906965;29;20031;-89
2021/12/19 13:51:18;;;;;;;27.83;10.82;;;;;;;8.77;52.32;94808.09;4922506;29;20020;-90
2021/12/19 13:53:46;;;;;;;4.30;1.75;;;;;;;8.89;53.12;94802.72;4906245;29;20034;-89
2021/12/19 13:56:14;;;;;;;4.07;2.00;;;;;;;8.91;53.64;94792.81;4906766;29;20057;-89
2021/12/19 13:58:43;;;;;;;3.03;1.40;;;;;;;8.91;50.90;94798.84;4891316;29;20032;-89
2021/12/19 14:01:11;;;;;;;2.97;1.50;;;;;;;9.03;51.98;94796.09;4922323;29;20024;-89
2021/12/19 14:03:47;;;;;;;3.45;1.60;;;;;;;8.87;50.63;94797.75;4922775;29;20087;-89
2021/12/19 14:06:14;;;;;;;3.95;1.67;;;;;;;8.68;52.01;94796.50;4906557;29;20024;-89
2021/12/19 14:08:40;;;;;;;2.97;1.33;;;;;;;8.81;51.09;94798.72;4906524;29;20084;-89
2021/12/19 14:11:11;;;;;;;3.28;1.63;;;;;;;8.99;50.90;94783.75;4906485;29;20060;-89
2021/12/19 14:13:38;;;;;;;4.30;1.40;;;;;;;8.77;51.99;94787.19;4922644;29;20024;-89
2021/12/19 14:16:11;;;;;;;3.70;1.73;;;;;;;8.67;50.34;94787.09;4906453;29;20440;-89
2021/12/19 14:18:46;;;;;;;4.03;1.60;;;;;;;8.33;52.52;94787.97;4923223;29;20028;-90
2021/12/19 14:21:35;;;;;;;3.53;1.50;;;;;;;8.29;50.79;94779.03;4906141;29;20032;-89
2021/12/19 14:24:41;;;;;;;4.07;1.40;;;;;;;7.90;51.54;94782.44;4923181;29;20032;-89
2021/12/19 14:27:16;;;;;;;2.88;1.52;;;;;;;7.43;53.29;94773.16;4830963;29;20064;-90
2021/12/19 14:29:47;;;;;;;3.60;1.38;;;;;;;7.02;53.84;94762.81;4906342;29;20358;-89
2021/12/19 14:32:19;;;;;;;7.07;1.73;;;;;;;6.90;54.14;94765.50;4905749;29;20488;-90
2021/12/19 14:34:48;;;;;;;7.03;1.40;;;;;;;6.68;54.62;94754.94;4889991;29;20071;-90
2021/12/19 14:37:23;;;;;;;3.50;1.35;;;;;;;6.47;55.03;94759.78;4921425;29;20420;-89
2021/12/19 14:40:20;;;;;;;3.30;1.65;;;;;;;6.35;55.38;94755.38;4906358;29;20039;-89
2021/12/19 14:42:49;;;;;;;3.83;1.67;;;;;;;6.20;56.38;94752.50;4905588;29;20028;-90
2021/12/19 14:45:19;;;;;;;6.20;1.80;;;;;;;6.22;55.91;94747.84;4905880;29;20032;-89
2021/12/19 14:47:51;;;;;;;9.20;3.60;;;;;;;6.19;56.11;94743.09;4905724;29;20040;-90
2021/12/19 14:50:24;;;;;;;15.75;6.53;;;;;;;6.30;55.63;94744.09;4890064;29;20075;-90
2021/12/19 14:53:09;;;;;;;28.23;12.67;;;;;;;6.31;56.90;94732.66;4905098;29;20024;-90
2021/12/19 14:56:05;;;;;;;30.33;12.43;;;;;;;6.10;57.27;94734.06;4905438;29;20348;-89
2021/12/19 14:58:34;;;;;;;13.82;5.45;;;;;;;5.98;58.31;94736.66;4888055;29;20032;-89
2021/12/19 15:01:19;;;;;;;9.65;4.15;;;;;;;5.81;58.63;94739.97;4905534;29;20036;-90
2021/12/19 15:04:00;;;;;;;13.43;5.55;;;;;;;5.77;58.10;94738.81;4904854;29;20466;-90
2021/12/19 15:06:36;;;;;;;4.90;2.28;;;;;;;5.79;58.89;94737.59;4905750;29;20039;-89
2021/12/19 15:09:03;;;;;;;4.45;2.20;;;;;;;5.58;58.65;94736.34;4906419;29;20035;-89
2021/12/19 15:11:29;;;;;;;35.45;13.60;;;;;;;5.42;59.11;94737.78;4921818;29;20024;-89
2021/12/19 15:13:54;;;;;;;110.28;38.20;;;;;;;5.39;58.64;94733.06;4888973;29;20051;-89
2021/12/19 15:16:20;;;;;;;138.00;53.67;;;;;;;5.33;58.88;94728.78;4905090;29;20091;-90
2021/12/19 15:18:45;;;;;;;26.20;9.88;;;;;;;5.37;58.82;94732.50;4905005;29;20028;-89
2021/12/19 15:21:12;;;;;;;10.30;4.55;;;;;;;5.16;59.32;94726.81;4905260;29;20118;-89
2021/12/19 15:23:41;;;;;;;5.55;2.15;;;;;;;5.15;59.24;94727.06;4904777;29;20028;-89
2021/12/19 15:26:14;;;;;;;6.10;2.35;;;;;;;5.49;59.09;94722.91;4905609;29;20512;-89
2021/12/19 15:28:41;;;;;;;6.05;1.85;;;;;;;5.49;58.73;94716.91;4905271;29;20032;-89
2021/12/19 15:31:06;;;;;;;5.35;2.08;;;;;;;5.47;58.58;94718.94;4921875;29;20024;-90
2021/12/19 15:33:32;;;;;;;4.43;1.70;;;;;;;5.32;58.91;94714.19;4904325;29;20032;-90
2021/12/19 15:35:57;;;;;;;3.60;1.30;;;;;;;5.37;58.28;94712.47;4921538;29;20459;-90
2021/12/19 15:38:23;;;;;;;9.10;1.80;;;;;;;5.57;57.50;94710.56;4920229;29;20069;-89
2021/12/19 15:41:04;;;;;;;2.65;1.27;;;;;;;5.60;58.06;94713.50;4904797;29;20035;-89
2021/12/19 15:43:30;;;;;;;3.70;1.60;;;;;;;5.46;58.08;94705.16;4904441;29;20138;-89
2021/12/19 15:45:58;;;;;;;5.25;1.60;;;;;;;5.30;58.83;94705.81;4888979;29;20476;-90
2021/12/19 15:48:24;;;;;;;2.47;1.40;;;;;;;5.14;58.94;94705.47;4888839;29;20038;-89
2021/12/19 15:50:51;;;;;;;3.83;1.75;;;;;;;5.22;59.13;94699.94;4920378;29;20020;-90
2021/12/19 15:53:16;;;;;;;3.65;1.80;;;;;;;5.18;58.30;94698.03;4888722;29;20036;-89
2021/12/19 15:55:42;;;;;;;6.63;2.35;;;;;;;5.21;58.95;94693.19;4904466;29;20510;-89
2021/12/19 15:58:10;;;;;;;10.02;3.55;;;;;;;5.22;58.73;94691.34;4888741;29;20027;-90
2021/12/19 16:00:37;;;;;;;12.77;3.67;;;;;;;5.04;61.28;94687.84;4904748;29;20449;-89
2021/12/19 16:03:03;;;;;;;9.57;3.78;;;;;;;4.87;59.88;94687.69;4904041;29;20427;-89
2021/12/19 16:05:28;;;;;;;9.57;3.55;;;;;;;4.95;59.76;94689.19;4888495;29;20099;-90
2021/12/19 16:07:54;;;;;;;6.28;2.67;;;;;;;5.04;59.29;94697.44;4904143;29;20048;-90
2021/12/19 16:10:21;;;;;;;6.53;3.22;;;;;;;4.90;59.45;94694.25;4904013;29;20036;-90
2021/12/19 16:12:46;;;;;;;8.30;3.38;;;;;;;4.86;59.60;94686.09;4887821;29;20437;-90
2021/12/19 16:15:14;;;;;;;6.30;2.60;;;;;;;4.84;59.29;94695.94;4888310;29;20099;-89
2021/12/19 16:17:40;;;;;;;11.90;2.42;;;;;;;4.90;58.56;94691.66;4888527;29;20031;-89
2021/12/19 16:20:08;;;;;;;5.72;2.58;;;;;;;4.80;58.79;94692.19;4888372;29;20039;-89
2021/12/19 16:22:34;;;;;;;13.00;2.63;;;;;;;4.47;61.03;94683.88;4888009;29;20097;-89
2021/12/19 16:24:59;;;;;;;5.40;2.60;;;;;;;4.35;60.68;94681.25;4888361;29;20059;-90
2021/12/19 16:27:26;;;;;;;9.40;3.40;;;;;;;4.29;60.23;94682.09;4919723;29;20124;-89
2021/12/19 16:29:51;;;;;;;5.68;2.78;;;;;;;4.94;59.68;94672.00;4904108;29;20028;-89
2021/12/19 16:32:17;;;;;;;5.60;2.70;;;;;;;5.13;57.03;94669.34;4919238;29;20071;-90
2021/12/19 16:34:44;;;;;;;6.95;2.85;;;;;;;5.15;56.14;94675.09;4872944;29;20410;-90
2021/12/19 16:37:10;;;;;;;7.47;2.58;;;;;;;5.19;57.04;94681.41;4904326;29;20080;-89
2021/12/19 16:39:38;;;;;;;6.00;2.47;;;;;;;5.12;57.67;94678.94;4903935;29;20438;-89
2021/12/19 16:42:10;;;;;;;7.35;2.53;;;;;;;4.66;58.85;94676.81;4920407;29;20490;-89
2021/12/19 16:44:38;;;;;;;9.80;3.13;;;;;;;4.63;59.85;94677.28;4920760;29;20035;-89
2021/12/19 16:47:04;;;;;;;6.82;2.75;;;;;;;4.61;58.78;94679.31;4903804;29;20416;-89
2021/12/19 16:49:30;;;;;;;7.38;2.42;;;;;;;4.72;59.10;94676.94;4903840;29;20031;-90
2021/12/19 16:51:56;;;;;;;7.15;2.30;;;;;;;4.59;58.37;94680.53;4887861;29;20464;-89
2021/12/19 16:54:22;;;;;;;6.55;2.80;;;;;;;4.66;58.88;94682.00;4903728;29;20032;-89
2021/12/19 16:56:49;;;;;;;7.15;2.83;;;;;;;4.80;59.55;94676.63;4919393;29;20449;-89
2021/12/19 16:59:14;;;;;;;5.75;2.60;;;;;;;4.81;61.22;94668.63;4887388;29;20393;-89
2021/12/19 17:01:40;;;;;;;10.65;2.90;;;;;;;4.83;58.62;94670.22;4887922;29;20139;-89
2021/12/19 17:04:09;;;;;;;4.90;2.22;;;;;;;4.88;58.03;94672.91;4920587;29;20080;-90
2021/12/19 17:06:36;;;;;;;4.78;2.00;;;;;;;4.83;58.95;94676.19;4920304;29;20032;-89
2021/12/19 17:09:02;;;;;;;5.18;2.50;;;;;;;4.75;59.11;94676.50;4920771;29;20028;-89
2021/12/19 17:11:32;;;;;;;7.47;2.83;;;;;;;4.61;59.33;94671.50;4903271;29;20024;-89
2021/12/19 17:14:09;;;;;;;4.32;2.40;;;;;;;4.44;59.79;94665.34;4904350;29;20115;-89
2021/12/19 17:16:37;;;;;;;4.07;2.28;;;;;;;4.22;60.09;94663.25;4903966;29;20455;-90
2021/12/19 17:19:04;;;;;;;4.20;1.80;;;;;;;4.82;59.60;94664.22;4888097;29;20111;-89
2021/12/19 17:21:30;;;;;;;5.15;2.13;;;;;;;4.67;59.18;94664.66;4902725;29;20040;-90
2021/12/19 17:23:55;;;;;;;5.72;2.50;;;;;;;4.71;60.06;94662.38;4903221;29;20043;-89
2021/12/19 17:26:23;;;;;;;7.10;2.35;;;;;;;4.51;60.17;94656.47;4903570;29;20039;-89
2021/12/19 17:28:49;;;;;;;5.30;1.85;;;;;;;4.31;61.97;94661.16;4903148;29;20040;-90
2021/12/19 17:31:16;;;;;;;6.43;2.28;;;;;;;4.45;61.36;94659.19;4918714;29;20366;-90
2021/12/19 17:33:42;;;;;;;5.82;2.00;;;;;;;4.03;62.58;94658.09;4902718;29;20465;-89
2021/12/19 17:36:10;;;;;;;24.33;10.48;;;;;;;4.03;62.28;94646.94;4919939;29;20051;-90